Thunder radar more information blitzortung!


Radar de pluja more information rain snow radar


Visita la nostra xarxa de llocs de meteo:

Template documentation
and downloads

And another site



No particular awareness of the weather is required.    There are no Weather-warnings

Pagina Historial Weather Underground text

Diari Resum Setembre 4, 2017 Unitats:  Tant    Imperial   Mètric
« Previous Dia
SegĂźent Dia »
Diari Setmana Mensual Anual Personalitzada
  Maxima: Minima: Media:
Temperatura: 81.3 °F /  27.4 °C 64.4 °F /  18.0 °C 74.1 °F /  23.4 °C
Punt de rosada: 66.4 °F /  19.1 °C 58.5 °F /  14.7 °C 61.7 °F /  16.5 °C
Humitat: 91 % 52 % 66 %
Wind Speed: 13.8 mph /  22.2 km/h - 4.5 mph /  7.3 km/h
RĂ fegues de vent: 13.8 mph /  22.2 km/h - -
Vent:- - East
Pression baro: 30.1 in /  1019.9 hPa 29.8 in /  1010.7 hPa -
Precipitacions: 0 in /  0.0 mm    
Historical Graphs
 
 
Dades de taula per Setembre 4, 2017
Temps Temperatura Punt de rosada Pression baro Vent Wind Speed RĂ fegues de vent Humitat Rainfall Rate (Hourly)
00:00 65.7 °F /  18.7 °C 61.7 °F /  16.5 °C 29.9 in /  1011.7 hPa Calm   2 mph /  3.2 km/h 87 % 0 in /  0.0 mm
00:01 68.5 °F /  20.3 °C 59.9 °F /  15.5 °C 29.9 in /  1012.8 hPa ENE 1.6 mph /  2.6 km/h 1.6 mph /  2.6 km/h 74 % 0 in /  0.0 mm
00:06 68.5 °F /  20.3 °C 59.9 °F /  15.5 °C 29.9 in /  1012.8 hPa NE 2.4 mph /  3.9 km/h 2.4 mph /  3.9 km/h 74 % 0 in /  0.0 mm
00:10 65.7 °F /  18.7 °C 62.1 °F /  16.7 °C 29.9 in /  1011.7 hPa Calm   2 mph /  3.2 km/h 88 % 0 in /  0.0 mm
00:20 65.5 °F /  18.6 °C 61.9 °F /  16.6 °C 29.9 in /  1011.7 hPa Calm     88 % 0 in /  0.0 mm
00:30 65.5 °F /  18.6 °C 61.9 °F /  16.6 °C 29.9 in /  1011.7 hPa NE 1 mph /  1.6 km/h 1 mph /  1.6 km/h 88 % 0 in /  0.0 mm
00:40 65.3 °F /  18.5 °C 61.7 °F /  16.5 °C 29.9 in /  1011.7 hPa Calm   2 mph /  3.2 km/h 88 % 0 in /  0.0 mm
00:50 65.3 °F /  18.5 °C 61.7 °F /  16.5 °C 29.9 in /  1011.7 hPa SW 2 mph /  3.2 km/h 2 mph /  3.2 km/h 88 % 0 in /  0.0 mm
01:00 65.3 °F /  18.5 °C 62.1 °F /  16.7 °C 29.9 in /  1011.7 hPa Calm   1 mph /  1.6 km/h 89 % 0 in /  0.0 mm
01:10 65.5 °F /  18.6 °C 62.2 °F /  16.8 °C 29.9 in /  1011.7 hPa Calm   1 mph /  1.6 km/h 89 % 0 in /  0.0 mm
01:20 65.3 °F /  18.5 °C 61.7 °F /  16.5 °C 29.9 in /  1011.7 hPa North 1 mph /  1.6 km/h 2 mph /  3.2 km/h 88 % 0 in /  0.0 mm
01:30 65.1 °F /  18.4 °C 61.9 °F /  16.6 °C 29.9 in /  1011.7 hPa WSW 1 mph /  1.6 km/h 2 mph /  3.2 km/h 89 % 0 in /  0.0 mm
01:40 65.3 °F /  18.5 °C 62.1 °F /  16.7 °C 29.8 in /  1010.7 hPa WSW 1 mph /  1.6 km/h   89 % 0 in /  0.0 mm
01:50 65.3 °F /  18.5 °C 62.2 °F /  16.8 °C 29.8 in /  1010.7 hPa Calm   1 mph /  1.6 km/h 90 % 0 in /  0.0 mm
02:00 65.5 °F /  18.6 °C 62.4 °F /  16.9 °C 29.9 in /  1011.7 hPa WNW 1 mph /  1.6 km/h 2 mph /  3.2 km/h 90 % 0 in /  0.0 mm
02:10 65.3 °F /  18.5 °C 62.2 °F /  16.8 °C 29.9 in /  1011.7 hPa NE 1 mph /  1.6 km/h 2 mph /  3.2 km/h 90 % 0 in /  0.0 mm
02:20 65.3 °F /  18.5 °C 62.1 °F /  16.7 °C 29.9 in /  1011.7 hPa NNW 1 mph /  1.6 km/h 2 mph /  3.2 km/h 89 % 0 in /  0.0 mm
02:30 65.1 °F /  18.4 °C 62.1 °F /  16.7 °C 29.9 in /  1011.7 hPa Calm     90 % 0 in /  0.0 mm
02:40 65.1 °F /  18.4 °C 62.1 °F /  16.7 °C 29.9 in /  1012.8 hPa NNW 1 mph /  1.6 km/h 2 mph /  3.2 km/h 90 % 0 in /  0.0 mm
02:50 65.3 °F /  18.5 °C 62.6 °F /  17.0 °C 29.9 in /  1012.8 hPa Calm   2 mph /  3.2 km/h 91 % 0 in /  0.0 mm
03:00 65.5 °F /  18.6 °C 62.8 °F /  17.1 °C 29.9 in /  1011.7 hPa ENE 1 mph /  1.6 km/h 2 mph /  3.2 km/h 91 % 0 in /  0.0 mm
03:10 65.7 °F /  18.7 °C 63 °F /  17.2 °C 29.9 in /  1012.8 hPa Calm     91 % 0 in /  0.0 mm
03:20 65.8 °F /  18.8 °C 63.1 °F /  17.3 °C 29.9 in /  1012.8 hPa ENE 1 mph /  1.6 km/h 1 mph /  1.6 km/h 91 % 0 in /  0.0 mm
03:30 66.2 °F /  19.0 °C 63.1 °F /  17.3 °C 29.9 in /  1013.8 hPa NE 1 mph /  1.6 km/h 1 mph /  1.6 km/h 90 % 0 in /  0.0 mm
03:40 66.2 °F /  19.0 °C 63.1 °F /  17.3 °C 29.9 in /  1013.8 hPa Calm   4 mph /  6.4 km/h 90 % 0 in /  0.0 mm
03:50 66.7 °F /  19.3 °C 64 °F /  17.8 °C 29.9 in /  1013.8 hPa Calm   2 mph /  3.2 km/h 91 % 0 in /  0.0 mm
04:00 66.7 °F /  19.3 °C 63.7 °F /  17.6 °C 29.9 in /  1013.8 hPa NNE 1 mph /  1.6 km/h 3 mph /  4.8 km/h 90 % 0 in /  0.0 mm
04:10 66.9 °F /  19.4 °C 63.9 °F /  17.7 °C 29.9 in /  1013.8 hPa NE 1 mph /  1.6 km/h 2 mph /  3.2 km/h 90 % 0 in /  0.0 mm
04:20 67.3 °F /  19.6 °C 64.2 °F /  17.9 °C 29.9 in /  1013.8 hPa Calm   2 mph /  3.2 km/h 90 % 0 in /  0.0 mm
04:30 67.5 °F /  19.7 °C 64.4 °F /  18.0 °C 29.9 in /  1013.8 hPa Calm   2 mph /  3.2 km/h 90 % 0 in /  0.0 mm
04:40 68.7 °F /  20.4 °C 65.3 °F /  18.5 °C 29.9 in /  1013.8 hPa Calm   2 mph /  3.2 km/h 89 % 0 in /  0.0 mm
04:50 69.4 °F /  20.8 °C 65.7 °F /  18.7 °C 29.9 in /  1013.8 hPa ENE 2 mph /  3.2 km/h 4 mph /  6.4 km/h 88 % 0 in /  0.0 mm
05:00 69.4 °F /  20.8 °C 65.1 °F /  18.4 °C 29.9 in /  1013.8 hPa NE 2 mph /  3.2 km/h 3 mph /  4.8 km/h 86 % 0 in /  0.0 mm
05:10 70.9 °F /  21.6 °C 65.5 °F /  18.6 °C 29.9 in /  1013.8 hPa NE 2 mph /  3.2 km/h 3 mph /  4.8 km/h 83 % 0 in /  0.0 mm
05:20 72.1 °F /  22.3 °C 66.4 °F /  19.1 °C 29.9 in /  1013.8 hPa North 1 mph /  1.6 km/h 4 mph /  6.4 km/h 82 % 0 in /  0.0 mm
05:30 72.3 °F /  22.4 °C 65.1 °F /  18.4 °C 29.9 in /  1013.8 hPa NNE 5 mph /  8.0 km/h 5 mph /  8.0 km/h 78 % 0 in /  0.0 mm
05:40 72.9 °F /  22.7 °C 65.1 °F /  18.4 °C 30 in /  1014.8 hPa NE 2 mph /  3.2 km/h 4 mph /  6.4 km/h 77 % 0 in /  0.0 mm
05:50 73.4 °F /  23.0 °C 64.9 °F /  18.3 °C 30 in /  1014.8 hPa NE 3 mph /  4.8 km/h 5 mph /  8.0 km/h 75 % 0 in /  0.0 mm
05:55 73.8 °F /  23.2 °C 65.3 °F /  18.5 °C 30 in /  1014.8 hPa ENE 2 mph /  3.2 km/h 5 mph /  8.0 km/h 75 % 0 in /  0.0 mm
10:58 73.9 °F /  23.3 °C 65.5 °F /  18.6 °C 30 in /  1014.8 hPa East 2.4 mph /  3.9 km/h 2.4 mph /  3.9 km/h 75 % 0 in /  0.0 mm
10:59 73.9 °F /  23.3 °C 65.5 °F /  18.6 °C 30 in /  1014.8 hPa East 2.9 mph /  4.7 km/h 2.9 mph /  4.7 km/h 75 % 0 in /  0.0 mm
11:00 74.3 °F /  23.5 °C 65.8 °F /  18.8 °C 30 in /  1014.8 hPa ESE 3.5 mph /  5.6 km/h 3.5 mph /  5.6 km/h 75 % 0 in /  0.0 mm
11:05 74.3 °F /  23.5 °C 65.5 °F /  18.6 °C 30 in /  1014.8 hPa ESE 3.5 mph /  5.6 km/h 3.5 mph /  5.6 km/h 74 % 0 in /  0.0 mm
11:10 74.3 °F /  23.5 °C 65.1 °F /  18.4 °C 30 in /  1014.8 hPa East 3.6 mph /  5.8 km/h 3.6 mph /  5.8 km/h 73 % 0 in /  0.0 mm
11:15 74.7 °F /  23.7 °C 65.5 °F /  18.6 °C 30 in /  1014.8 hPa NE 3.5 mph /  5.6 km/h 3.5 mph /  5.6 km/h 73 % 0 in /  0.0 mm
11:20 74.3 °F /  23.5 °C 63.9 °F /  17.7 °C 30 in /  1014.8 hPa ESE 4.6 mph /  7.4 km/h 4.6 mph /  7.4 km/h 70 % 0 in /  0.0 mm
11:25 75 °F /  23.9 °C 64.6 °F /  18.1 °C 30 in /  1014.8 hPa NE 3.5 mph /  5.6 km/h 3.5 mph /  5.6 km/h 70 % 0 in /  0.0 mm
11:30 75.7 °F /  24.3 °C 64.4 °F /  18.0 °C 30 in /  1014.8 hPa NNE 5.8 mph /  9.3 km/h 5.8 mph /  9.3 km/h 68 % 0 in /  0.0 mm
11:35 76.1 °F /  24.5 °C 63.9 °F /  17.7 °C 30 in /  1014.8 hPa East 3.8 mph /  6.1 km/h 3.8 mph /  6.1 km/h 66 % 0 in /  0.0 mm
11:40 75.7 °F /  24.3 °C 63.1 °F /  17.3 °C 30 in /  1014.8 hPa ESE 5.8 mph /  9.3 km/h 5.8 mph /  9.3 km/h 65 % 0 in /  0.0 mm
11:45 75.7 °F /  24.3 °C 63.1 °F /  17.3 °C 30 in /  1014.8 hPa East 3.5 mph /  5.6 km/h 3.5 mph /  5.6 km/h 65 % 0 in /  0.0 mm
11:50 76.3 °F /  24.6 °C 63.1 °F /  17.3 °C 30 in /  1014.8 hPa East 5.8 mph /  9.3 km/h 5.8 mph /  9.3 km/h 64 % 0 in /  0.0 mm
11:55 76.1 °F /  24.5 °C 63.5 °F /  17.5 °C 30 in /  1014.8 hPa NNE 4.9 mph /  7.9 km/h 4.9 mph /  7.9 km/h 65 % 0 in /  0.0 mm
12:00 76.1 °F /  24.5 °C 63 °F /  17.2 °C 30 in /  1014.8 hPa ESE 5.8 mph /  9.3 km/h 5.8 mph /  9.3 km/h 64 % 0 in /  0.0 mm
12:05 76.1 °F /  24.5 °C 63 °F /  17.2 °C 30 in /  1014.8 hPa ESE 3.5 mph /  5.6 km/h 3.5 mph /  5.6 km/h 64 % 0 in /  0.0 mm
12:10 76.6 °F /  24.8 °C 63.1 °F /  17.3 °C 30 in /  1014.8 hPa South 4.6 mph /  7.4 km/h 4.6 mph /  7.4 km/h 63 % 0 in /  0.0 mm
12:15 76.8 °F /  24.9 °C 62.8 °F /  17.1 °C 30 in /  1014.8 hPa SE 5.9 mph /  9.5 km/h 5.9 mph /  9.5 km/h 62 % 0 in /  0.0 mm
12:20 76.6 °F /  24.8 °C 63.1 °F /  17.3 °C 30 in /  1014.8 hPa ESE 6 mph /  9.7 km/h 6 mph /  9.7 km/h 63 % 0 in /  0.0 mm
12:25 77 °F /  25.0 °C 62.4 °F /  16.9 °C 30 in /  1014.8 hPa ESE 5.8 mph /  9.3 km/h 5.8 mph /  9.3 km/h 61 % 0 in /  0.0 mm
12:30 77 °F /  25.0 °C 62.1 °F /  16.7 °C 30 in /  1014.8 hPa ENE 5.8 mph /  9.3 km/h 5.8 mph /  9.3 km/h 60 % 0 in /  0.0 mm
12:35 78.6 °F /  25.9 °C 63.7 °F /  17.6 °C 30 in /  1014.8 hPa ESE 6.2 mph /  10.0 km/h 6.2 mph /  10.0 km/h 60 % 0 in /  0.0 mm
12:40 78.3 °F /  25.7 °C 63.7 °F /  17.6 °C 30 in /  1014.8 hPa ENE 3.5 mph /  5.6 km/h 3.5 mph /  5.6 km/h 61 % 0 in /  0.0 mm
12:45 78.3 °F /  25.7 °C 62.8 °F /  17.1 °C 30 in /  1014.8 hPa East 8.1 mph /  13.0 km/h 8.1 mph /  13.0 km/h 59 % 0 in /  0.0 mm
12:50 78.4 °F /  25.8 °C 61.9 °F /  16.6 °C 30 in /  1014.8 hPa ESE 8.1 mph /  13.0 km/h 8.1 mph /  13.0 km/h 57 % 0 in /  0.0 mm
12:55 78.3 °F /  25.7 °C 62.2 °F /  16.8 °C 30 in /  1014.8 hPa SSW 5.8 mph /  9.3 km/h 5.8 mph /  9.3 km/h 58 % 0 in /  0.0 mm
13:00 78.3 °F /  25.7 °C 62.2 °F /  16.8 °C 30 in /  1014.8 hPa ESE 8.5 mph /  13.7 km/h 8.5 mph /  13.7 km/h 58 % 0 in /  0.0 mm
13:05 78.3 °F /  25.7 °C 62.2 °F /  16.8 °C 30 in /  1014.8 hPa South 3.5 mph /  5.6 km/h 3.5 mph /  5.6 km/h 58 % 0 in /  0.0 mm
13:10 78.4 °F /  25.8 °C 62.4 °F /  16.9 °C 30 in /  1014.8 hPa ESE 5.8 mph /  9.3 km/h 5.8 mph /  9.3 km/h 58 % 0 in /  0.0 mm
13:15 79.2 °F /  26.2 °C 62.6 °F /  17.0 °C 30 in /  1014.8 hPa ESE 6.9 mph /  11.1 km/h 6.9 mph /  11.1 km/h 57 % 0 in /  0.0 mm
13:20 78.8 °F /  26.0 °C 62.2 °F /  16.8 °C 30 in /  1014.8 hPa South 2.3 mph /  3.7 km/h 2.3 mph /  3.7 km/h 57 % 0 in /  0.0 mm
13:25 79.5 °F /  26.4 °C 63.3 °F /  17.4 °C 30 in /  1014.8 hPa ENE 8.1 mph /  13.0 km/h 8.1 mph /  13.0 km/h 58 % 0 in /  0.0 mm
13:30 79.2 °F /  26.2 °C 62.6 °F /  17.0 °C 30 in /  1014.8 hPa ESE 4.3 mph /  6.9 km/h 4.3 mph /  6.9 km/h 57 % 0 in /  0.0 mm
13:35 78.6 °F /  25.9 °C 62.1 °F /  16.7 °C 30 in /  1014.8 hPa ENE 8.1 mph /  13.0 km/h 8.1 mph /  13.0 km/h 57 % 0 in /  0.0 mm
13:40 78.3 °F /  25.7 °C 61.9 °F /  16.6 °C 30 in /  1014.8 hPa ESE 5.8 mph /  9.3 km/h 5.8 mph /  9.3 km/h 57 % 0 in /  0.0 mm
13:45 78.3 °F /  25.7 °C 62.2 °F /  16.8 °C 30 in /  1014.8 hPa ESE 8.1 mph /  13.0 km/h 8.1 mph /  13.0 km/h 58 % 0 in /  0.0 mm
13:50 78.4 °F /  25.8 °C 62.4 °F /  16.9 °C 30 in /  1014.8 hPa ENE 7.6 mph /  12.2 km/h 7.6 mph /  12.2 km/h 58 % 0 in /  0.0 mm
13:55 79 °F /  26.1 °C 62.4 °F /  16.9 °C 30 in /  1014.8 hPa ESE 9.2 mph /  14.8 km/h 9.2 mph /  14.8 km/h 57 % 0 in /  0.0 mm
14:00 78.3 °F /  25.7 °C 61.3 °F /  16.3 °C 30 in /  1014.8 hPa ESE 7.6 mph /  12.2 km/h 7.6 mph /  12.2 km/h 56 % 0 in /  0.0 mm
14:05 78.8 °F /  26.0 °C 62.2 °F /  16.8 °C 30 in /  1014.8 hPa ESE 4 mph /  6.4 km/h 4 mph /  6.4 km/h 57 % 0 in /  0.0 mm
14:10 78.3 °F /  25.7 °C 61.9 °F /  16.6 °C 30 in /  1014.8 hPa SE 11.5 mph /  18.5 km/h 11.5 mph /  18.5 km/h 57 % 0 in /  0.0 mm
14:15 79 °F /  26.1 °C 62.4 °F /  16.9 °C 30 in /  1014.8 hPa SSE 4.6 mph /  7.4 km/h 4.6 mph /  7.4 km/h 57 % 0 in /  0.0 mm
14:20 79.2 °F /  26.2 °C 62.1 °F /  16.7 °C 30 in /  1014.8 hPa SE 4.6 mph /  7.4 km/h 4.6 mph /  7.4 km/h 56 % 0 in /  0.0 mm
14:25 79.3 °F /  26.3 °C 62.8 °F /  17.1 °C 30 in /  1014.8 hPa SSE 6.9 mph /  11.1 km/h 6.9 mph /  11.1 km/h 57 % 0 in /  0.0 mm
14:30 80.1 °F /  26.7 °C 63 °F /  17.2 °C 30 in /  1014.8 hPa West 6.9 mph /  11.1 km/h 6.9 mph /  11.1 km/h 56 % 0 in /  0.0 mm
14:35 81 °F /  27.2 °C 63.3 °F /  17.4 °C 30 in /  1014.8 hPa South 6.9 mph /  11.1 km/h 6.9 mph /  11.1 km/h 55 % 0 in /  0.0 mm
14:40 81.3 °F /  27.4 °C 63.1 °F /  17.3 °C 30 in /  1015.8 hPa South 3.6 mph /  5.8 km/h 3.6 mph /  5.8 km/h 54 % 0 in /  0.0 mm
14:45 81.3 °F /  27.4 °C 63.1 °F /  17.3 °C 30 in /  1015.8 hPa South 6.9 mph /  11.1 km/h 6.9 mph /  11.1 km/h 54 % 0 in /  0.0 mm
14:50 81.1 °F /  27.3 °C 63 °F /  17.2 °C 30 in /  1015.8 hPa ESE 5.6 mph /  9.0 km/h 5.6 mph /  9.0 km/h 54 % 0 in /  0.0 mm
14:55 81 °F /  27.2 °C 62.2 °F /  16.8 °C 30 in /  1015.8 hPa SW 6.9 mph /  11.1 km/h 6.9 mph /  11.1 km/h 53 % 0 in /  0.0 mm
15:00 80.4 °F /  26.9 °C 62.2 °F /  16.8 °C 30 in /  1015.8 hPa East 13.8 mph /  22.2 km/h 13.8 mph /  22.2 km/h 54 % 0 in /  0.0 mm
15:05 80.8 °F /  27.1 °C 62.1 °F /  16.7 °C 30 in /  1015.8 hPa SSW 5.8 mph /  9.3 km/h 5.9 mph /  9.5 km/h 53 % 0 in /  0.0 mm
15:10 81 °F /  27.2 °C 61.7 °F /  16.5 °C 30 in /  1014.8 hPa SSE 8.1 mph /  13.0 km/h 8.1 mph /  13.0 km/h 52 % 0 in /  0.0 mm
15:15 80.2 °F /  26.8 °C 61.5 °F /  16.4 °C 30 in /  1014.8 hPa ESE 8.1 mph /  13.0 km/h 8.1 mph /  13.0 km/h 53 % 0 in /  0.0 mm
15:20 79.9 °F /  26.6 °C 61.2 °F /  16.2 °C 30 in /  1014.8 hPa ESE 11.5 mph /  18.5 km/h 11.5 mph /  18.5 km/h 53 % 0 in /  0.0 mm
15:25 79 °F /  26.1 °C 60.4 °F /  15.8 °C 30 in /  1014.8 hPa ESE 9.2 mph /  14.8 km/h 9.2 mph /  14.8 km/h 53 % 0 in /  0.0 mm
15:30 78.6 °F /  25.9 °C 60.1 °F /  15.6 °C 30 in /  1014.8 hPa ESE 9.2 mph /  14.8 km/h 9.2 mph /  14.8 km/h 53 % 0 in /  0.0 mm
15:32 78.6 °F /  25.9 °C 60.6 °F /  15.9 °C 30 in /  1014.8 hPa ESE 8.1 mph /  13.0 km/h 8.1 mph /  13.0 km/h 54 % 0 in /  0.0 mm
15:37 78.6 °F /  25.9 °C 60.6 °F /  15.9 °C 30 in /  1014.8 hPa SE 5.8 mph /  9.3 km/h 5.8 mph /  9.3 km/h 54 % 0 in /  0.0 mm
15:42 78.8 °F /  26.0 °C 60.6 °F /  15.9 °C 30 in /  1014.8 hPa East 9.2 mph /  14.8 km/h 9.2 mph /  14.8 km/h 54 % 0 in /  0.0 mm
15:47 79.3 °F /  26.3 °C 61.2 °F /  16.2 °C 30 in /  1014.8 hPa ESE 6.9 mph /  11.1 km/h 6.9 mph /  11.1 km/h 54 % 0 in /  0.0 mm
15:52 79.7 °F /  26.5 °C 61.5 °F /  16.4 °C 30 in /  1014.8 hPa SE 6.4 mph /  10.3 km/h 6.4 mph /  10.3 km/h 54 % 0 in /  0.0 mm
15:57 79.5 °F /  26.4 °C 61.3 °F /  16.3 °C 30 in /  1015.8 hPa ESE 6 mph /  9.7 km/h 6 mph /  9.7 km/h 54 % 0 in /  0.0 mm
16:02 79.5 °F /  26.4 °C 61.3 °F /  16.3 °C 30 in /  1015.8 hPa SSE 5.8 mph /  9.3 km/h 5.8 mph /  9.3 km/h 54 % 0 in /  0.0 mm
16:07 79.5 °F /  26.4 °C 61.3 °F /  16.3 °C 30 in /  1015.8 hPa SSE 8.1 mph /  13.0 km/h 8.1 mph /  13.0 km/h 54 % 0 in /  0.0 mm
16:12 79.7 °F /  26.5 °C 61.5 °F /  16.4 °C 30 in /  1014.8 hPa East 8.1 mph /  13.0 km/h 8.1 mph /  13.0 km/h 54 % 0 in /  0.0 mm
16:17 79.7 °F /  26.5 °C 61.5 °F /  16.4 °C 30 in /  1014.8 hPa SE 5.8 mph /  9.3 km/h 5.8 mph /  9.3 km/h 54 % 0 in /  0.0 mm
16:22 79.2 °F /  26.2 °C 61.2 °F /  16.2 °C 30 in /  1014.8 hPa SSE 10.4 mph /  16.7 km/h 10.4 mph /  16.7 km/h 54 % 0 in /  0.0 mm
16:24 79.3 °F /  26.3 °C 61.2 °F /  16.2 °C 30 in /  1015.8 hPa ESE 5.8 mph /  9.3 km/h 5.8 mph /  9.3 km/h 54 % 0 in /  0.0 mm
16:29 79.5 °F /  26.4 °C 61.3 °F /  16.3 °C 30 in /  1015.8 hPa ESE 6.9 mph /  11.1 km/h 6.9 mph /  11.1 km/h 54 % 0 in /  0.0 mm
16:34 78.8 °F /  26.0 °C 60.6 °F /  15.9 °C 30 in /  1015.8 hPa NNE 9.2 mph /  14.8 km/h 9.2 mph /  14.8 km/h 54 % 0 in /  0.0 mm
16:39 78.6 °F /  25.9 °C 60.6 °F /  15.9 °C 30 in /  1014.8 hPa ESE 8.1 mph /  13.0 km/h 8.1 mph /  13.0 km/h 54 % 0 in /  0.0 mm
16:44 78.4 °F /  25.8 °C 61 °F /  16.1 °C 30 in /  1014.8 hPa ENE 6 mph /  9.7 km/h 6 mph /  9.7 km/h 55 % 0 in /  0.0 mm
16:49 79 °F /  26.1 °C 61.3 °F /  16.3 °C 30 in /  1014.8 hPa ESE 5.8 mph /  9.3 km/h 5.8 mph /  9.3 km/h 55 % 0 in /  0.0 mm
16:54 78.8 °F /  26.0 °C 61.3 °F /  16.3 °C 30 in /  1015.8 hPa East 5.8 mph /  9.3 km/h 5.8 mph /  9.3 km/h 55 % 0 in /  0.0 mm
16:59 78.8 °F /  26.0 °C 61.3 °F /  16.3 °C 30 in /  1015.8 hPa ENE 5.8 mph /  9.3 km/h 5.8 mph /  9.3 km/h 55 % 0 in /  0.0 mm
17:04 78.1 °F /  25.6 °C 60.6 °F /  15.9 °C 30 in /  1015.8 hPa ESE 11.2 mph /  18.0 km/h 11.2 mph /  18.0 km/h 55 % 0 in /  0.0 mm
17:09 78.1 °F /  25.6 °C 61.2 °F /  16.2 °C 30 in /  1015.8 hPa East 8.1 mph /  13.0 km/h 8.1 mph /  13.0 km/h 56 % 0 in /  0.0 mm
17:14 77.9 °F /  25.5 °C 61 °F /  16.1 °C 30 in /  1015.8 hPa ENE 5.8 mph /  9.3 km/h 5.8 mph /  9.3 km/h 56 % 0 in /  0.0 mm
17:19 78.4 °F /  25.8 °C 61.3 °F /  16.3 °C 30 in /  1015.8 hPa SSE 8.1 mph /  13.0 km/h 8.1 mph /  13.0 km/h 56 % 0 in /  0.0 mm
17:24 79 °F /  26.1 °C 61.3 °F /  16.3 °C 30 in /  1015.8 hPa South 6 mph /  9.7 km/h 6 mph /  9.7 km/h 55 % 0 in /  0.0 mm
17:29 79 °F /  26.1 °C 61.3 °F /  16.3 °C 30 in /  1015.8 hPa SE 9.2 mph /  14.8 km/h 9.2 mph /  14.8 km/h 55 % 0 in /  0.0 mm
17:34 78.6 °F /  25.9 °C 61.2 °F /  16.2 °C 30 in /  1015.8 hPa South 8.1 mph /  13.0 km/h 8.1 mph /  13.0 km/h 55 % 0 in /  0.0 mm
17:36 78.8 °F /  26.0 °C 61.3 °F /  16.3 °C 30 in /  1015.8 hPa ENE 7.1 mph /  11.4 km/h 7.1 mph /  11.4 km/h 55 % 0 in /  0.0 mm
17:41 79 °F /  26.1 °C 61.3 °F /  16.3 °C 30 in /  1015.8 hPa West 6.9 mph /  11.1 km/h 6.9 mph /  11.1 km/h 55 % 0 in /  0.0 mm
17:46 79.2 °F /  26.2 °C 61.5 °F /  16.4 °C 30 in /  1015.8 hPa SSE 8.7 mph /  14.0 km/h 8.7 mph /  14.0 km/h 55 % 0 in /  0.0 mm
17:51 78.4 °F /  25.8 °C 61 °F /  16.1 °C 30 in /  1015.8 hPa ENE 8.1 mph /  13.0 km/h 8.1 mph /  13.0 km/h 55 % 0 in /  0.0 mm
17:56 79.2 °F /  26.2 °C 61.5 °F /  16.4 °C 30 in /  1016.8 hPa ENE 4.6 mph /  7.4 km/h 4.6 mph /  7.4 km/h 55 % 0 in /  0.0 mm
18:01 78.1 °F /  25.6 °C 60.6 °F /  15.9 °C 30 in /  1016.8 hPa East 11.5 mph /  18.5 km/h 11.5 mph /  18.5 km/h 55 % 0 in /  0.0 mm
18:06 77.9 °F /  25.5 °C 61 °F /  16.1 °C 30 in /  1016.8 hPa East 8.1 mph /  13.0 km/h 8.1 mph /  13.0 km/h 56 % 0 in /  0.0 mm
18:11 77.4 °F /  25.2 °C 60.4 °F /  15.8 °C 30 in /  1015.8 hPa ESE 10.5 mph /  16.9 km/h 10.5 mph /  16.9 km/h 56 % 0 in /  0.0 mm
18:16 77 °F /  25.0 °C 61.2 °F /  16.2 °C 30 in /  1015.8 hPa ESE 10.4 mph /  16.7 km/h 10.4 mph /  16.7 km/h 58 % 0 in /  0.0 mm
18:21 76.8 °F /  24.9 °C 61.3 °F /  16.3 °C 30 in /  1015.8 hPa ENE 10.5 mph /  16.9 km/h 10.5 mph /  16.9 km/h 59 % 0 in /  0.0 mm
18:26 76.8 °F /  24.9 °C 61.3 °F /  16.3 °C 30 in /  1015.8 hPa SE 9.2 mph /  14.8 km/h 9.2 mph /  14.8 km/h 59 % 0 in /  0.0 mm
18:31 76.6 °F /  24.8 °C 61.7 °F /  16.5 °C 30 in /  1015.8 hPa SSE 8.1 mph /  13.0 km/h 8.1 mph /  13.0 km/h 60 % 0 in /  0.0 mm
18:36 76.5 °F /  24.7 °C 61.5 °F /  16.4 °C 30 in /  1015.8 hPa SSE 6.9 mph /  11.1 km/h 6.9 mph /  11.1 km/h 60 % 0 in /  0.0 mm
18:41 76.6 °F /  24.8 °C 61.7 °F /  16.5 °C 30 in /  1016.8 hPa ESE 9.2 mph /  14.8 km/h 9.2 mph /  14.8 km/h 60 % 0 in /  0.0 mm
18:46 76.6 °F /  24.8 °C 61.2 °F /  16.2 °C 30 in /  1016.8 hPa ESE 6.9 mph /  11.1 km/h 6.9 mph /  11.1 km/h 59 % 0 in /  0.0 mm
18:51 76.6 °F /  24.8 °C 61.2 °F /  16.2 °C 30 in /  1016.8 hPa ENE 11.5 mph /  18.5 km/h 11.5 mph /  18.5 km/h 59 % 0 in /  0.0 mm
18:56 76.1 °F /  24.5 °C 60.6 °F /  15.9 °C 30 in /  1015.8 hPa ESE 9.2 mph /  14.8 km/h 9.2 mph /  14.8 km/h 59 % 0 in /  0.0 mm
19:01 76.1 °F /  24.5 °C 61.2 °F /  16.2 °C 30 in /  1015.8 hPa ENE 5.8 mph /  9.3 km/h 5.8 mph /  9.3 km/h 60 % 0 in /  0.0 mm
19:06 75.7 °F /  24.3 °C 61 °F /  16.1 °C 30 in /  1015.8 hPa East 8.1 mph /  13.0 km/h 8.1 mph /  13.0 km/h 60 % 0 in /  0.0 mm
19:11 75.7 °F /  24.3 °C 61 °F /  16.1 °C 30 in /  1015.8 hPa NE 6.9 mph /  11.1 km/h 6.9 mph /  11.1 km/h 60 % 0 in /  0.0 mm
19:16 75.4 °F /  24.1 °C 60.4 °F /  15.8 °C 30 in /  1015.8 hPa ENE 8.1 mph /  13.0 km/h 8.1 mph /  13.0 km/h 60 % 0 in /  0.0 mm
19:21 75.2 °F /  24.0 °C 60.4 °F /  15.8 °C 30 in /  1015.8 hPa East 8.1 mph /  13.0 km/h 8.1 mph /  13.0 km/h 60 % 0 in /  0.0 mm
19:26 75.2 °F /  24.0 °C 60.8 °F /  16.0 °C 30 in /  1016.8 hPa East 8.1 mph /  13.0 km/h 8.1 mph /  13.0 km/h 61 % 0 in /  0.0 mm
19:31 75.2 °F /  24.0 °C 60.8 °F /  16.0 °C 30 in /  1016.8 hPa East 6.9 mph /  11.1 km/h 6.9 mph /  11.1 km/h 61 % 0 in /  0.0 mm
19:36 75 °F /  23.9 °C 61.2 °F /  16.2 °C 30 in /  1016.8 hPa ESE 5.9 mph /  9.5 km/h 5.9 mph /  9.5 km/h 62 % 0 in /  0.0 mm
19:41 74.8 °F /  23.8 °C 61 °F /  16.1 °C 30 in /  1016.8 hPa SE 8.1 mph /  13.0 km/h 8.1 mph /  13.0 km/h 62 % 0 in /  0.0 mm
19:46 74.7 °F /  23.7 °C 60.8 °F /  16.0 °C 30 in /  1016.8 hPa ESE 4.7 mph /  7.6 km/h 4.7 mph /  7.6 km/h 62 % 0 in /  0.0 mm
19:51 74.7 °F /  23.7 °C 60.8 °F /  16.0 °C 30 in /  1016.8 hPa SE 5.9 mph /  9.5 km/h 5.9 mph /  9.5 km/h 62 % 0 in /  0.0 mm
19:56 74.5 °F /  23.6 °C 61.2 °F /  16.2 °C 30 in /  1016.8 hPa ESE 5.8 mph /  9.3 km/h 5.8 mph /  9.3 km/h 63 % 0 in /  0.0 mm
20:01 74.3 °F /  23.5 °C 61 °F /  16.1 °C 30 in /  1016.8 hPa ESE 5.8 mph /  9.3 km/h 5.8 mph /  9.3 km/h 63 % 0 in /  0.0 mm
20:02 74.3 °F /  23.5 °C 61 °F /  16.1 °C 30 in /  1016.8 hPa East 4.7 mph /  7.6 km/h 4.7 mph /  7.6 km/h 63 % 0 in /  0.0 mm
20:07 74.1 °F /  23.4 °C 60.6 °F /  15.9 °C 30 in /  1016.8 hPa ESE 5.8 mph /  9.3 km/h 5.8 mph /  9.3 km/h 63 % 0 in /  0.0 mm
20:12 73.9 °F /  23.3 °C 60.4 °F /  15.8 °C 30.1 in /  1017.8 hPa ESE 5.8 mph /  9.3 km/h 5.8 mph /  9.3 km/h 63 % 0 in /  0.0 mm
20:17 73.9 °F /  23.3 °C 60.4 °F /  15.8 °C 30.1 in /  1017.8 hPa East 4 mph /  6.4 km/h 4 mph /  6.4 km/h 63 % 0 in /  0.0 mm
20:22 73.6 °F /  23.1 °C 60.6 °F /  15.9 °C 30.1 in /  1017.8 hPa ESE 4.6 mph /  7.4 km/h 4.6 mph /  7.4 km/h 64 % 0 in /  0.0 mm
20:27 73.4 °F /  23.0 °C 60.4 °F /  15.8 °C 30.1 in /  1017.8 hPa ENE 3.5 mph /  5.6 km/h 3.5 mph /  5.6 km/h 64 % 0 in /  0.0 mm
20:32 73.4 °F /  23.0 °C 60.4 °F /  15.8 °C 30.1 in /  1017.8 hPa East 3.5 mph /  5.6 km/h 3.5 mph /  5.6 km/h 64 % 0 in /  0.0 mm
20:37 73.2 °F /  22.9 °C 60.3 °F /  15.7 °C 30.1 in /  1017.8 hPa ESE 3.5 mph /  5.6 km/h 3.5 mph /  5.6 km/h 64 % 0 in /  0.0 mm
20:42 73 °F /  22.8 °C 60.1 °F /  15.6 °C 30.1 in /  1017.8 hPa ENE 4.7 mph /  7.6 km/h 4.7 mph /  7.6 km/h 64 % 0 in /  0.0 mm
20:47 72.9 °F /  22.7 °C 60.1 °F /  15.6 °C 30.1 in /  1017.8 hPa NE 2.3 mph /  3.7 km/h 2.3 mph /  3.7 km/h 64 % 0 in /  0.0 mm
20:52 72.7 °F /  22.6 °C 59.7 °F /  15.4 °C 30.1 in /  1017.8 hPa ENE 2.4 mph /  3.9 km/h 2.4 mph /  3.9 km/h 64 % 0 in /  0.0 mm
20:57 72.7 °F /  22.6 °C 60.3 °F /  15.7 °C 30.1 in /  1017.8 hPa ENE 3.5 mph /  5.6 km/h 3.5 mph /  5.6 km/h 65 % 0 in /  0.0 mm
21:02 72.5 °F /  22.5 °C 60.1 °F /  15.6 °C 30.1 in /  1017.8 hPa NNE 2.3 mph /  3.7 km/h 2.3 mph /  3.7 km/h 65 % 0 in /  0.0 mm
21:07 72.3 °F /  22.4 °C 59.9 °F /  15.5 °C 30 in /  1016.8 hPa ENE 4.6 mph /  7.4 km/h 4.6 mph /  7.4 km/h 65 % 0 in /  0.0 mm
21:12 72.3 °F /  22.4 °C 59.9 °F /  15.5 °C 30 in /  1016.8 hPa ENE 2.6 mph /  4.2 km/h 2.6 mph /  4.2 km/h 65 % 0 in /  0.0 mm
21:17 72.1 °F /  22.3 °C 59.7 °F /  15.4 °C 30 in /  1016.8 hPa ENE 3.5 mph /  5.6 km/h 3.5 mph /  5.6 km/h 65 % 0 in /  0.0 mm
21:22 72.1 °F /  22.3 °C 59.7 °F /  15.4 °C 30.1 in /  1017.8 hPa NE 4.6 mph /  7.4 km/h 4.6 mph /  7.4 km/h 65 % 0 in /  0.0 mm
21:27 72 °F /  22.2 °C 60.1 °F /  15.6 °C 30.1 in /  1017.8 hPa NNE 2.4 mph /  3.9 km/h 2.4 mph /  3.9 km/h 66 % 0 in /  0.0 mm
21:32 71.8 °F /  22.1 °C 59.7 °F /  15.4 °C 30.1 in /  1017.8 hPa East 3.5 mph /  5.6 km/h 3.5 mph /  5.6 km/h 66 % 0 in /  0.0 mm
21:37 71.6 °F /  22.0 °C 59.5 °F /  15.3 °C 30.1 in /  1017.8 hPa ESE 3.5 mph /  5.6 km/h 3.5 mph /  5.6 km/h 66 % 0 in /  0.0 mm
21:42 71.6 °F /  22.0 °C 59.5 °F /  15.3 °C 30.1 in /  1017.8 hPa NNE 3.5 mph /  5.6 km/h 3.5 mph /  5.6 km/h 66 % 0 in /  0.0 mm
21:47 71.6 °F /  22.0 °C 59.5 °F /  15.3 °C 30.1 in /  1017.8 hPa ENE 2.6 mph /  4.2 km/h 2.6 mph /  4.2 km/h 66 % 0 in /  0.0 mm
21:52 71.6 °F /  22.0 °C 59.5 °F /  15.3 °C 30.1 in /  1018.8 hPa NE 3.1 mph /  5.0 km/h 3.1 mph /  5.0 km/h 66 % 0 in /  0.0 mm
21:57 71.4 °F /  21.9 °C 59.9 °F /  15.5 °C 30.1 in /  1018.8 hPa NE 2.4 mph /  3.9 km/h 2.4 mph /  3.9 km/h 67 % 0 in /  0.0 mm
22:02 71.4 °F /  21.9 °C 59.9 °F /  15.5 °C 30.1 in /  1018.8 hPa NE 2.3 mph /  3.7 km/h 2.3 mph /  3.7 km/h 67 % 0 in /  0.0 mm
22:07 71.4 °F /  21.9 °C 60.3 °F /  15.7 °C 30.1 in /  1018.8 hPa NNE 2.9 mph /  4.7 km/h 2.9 mph /  4.7 km/h 68 % 0 in /  0.0 mm
22:12 71.4 °F /  21.9 °C 60.3 °F /  15.7 °C 30.1 in /  1018.8 hPa NE 2.3 mph /  3.7 km/h 2.3 mph /  3.7 km/h 68 % 0 in /  0.0 mm
22:17 71.2 °F /  21.8 °C 60.1 °F /  15.6 °C 30.1 in /  1018.8 hPa ENE 2.3 mph /  3.7 km/h 2.3 mph /  3.7 km/h 68 % 0 in /  0.0 mm
22:22 71.1 °F /  21.7 °C 60.1 °F /  15.6 °C 30.1 in /  1018.8 hPa NNE 1.2 mph /  1.9 km/h   68 % 0 in /  0.0 mm
22:27 71.1 °F /  21.7 °C 60.1 °F /  15.6 °C 30.1 in /  1018.8 hPa NNE 1.2 mph /  1.9 km/h 1.2 mph /  1.9 km/h 68 % 0 in /  0.0 mm
22:32 70.9 °F /  21.6 °C 60.3 °F /  15.7 °C 30.1 in /  1018.8 hPa NNE 2.3 mph /  3.7 km/h 2.3 mph /  3.7 km/h 69 % 0 in /  0.0 mm
22:37 70.9 °F /  21.6 °C 60.3 °F /  15.7 °C 30.1 in /  1018.8 hPa Calm     69 % 0 in /  0.0 mm
22:42 70.7 °F /  21.5 °C 60.1 °F /  15.6 °C 30.1 in /  1018.8 hPa NNE 1.2 mph /  1.9 km/h   69 % 0 in /  0.0 mm
22:47 70.5 °F /  21.4 °C 59.9 °F /  15.5 °C 30.1 in /  1018.8 hPa NNE 2.3 mph /  3.7 km/h   69 % 0 in /  0.0 mm
22:52 70.5 °F /  21.4 °C 59.9 °F /  15.5 °C 30.1 in /  1018.8 hPa NNE 1.2 mph /  1.9 km/h   69 % 0 in /  0.0 mm
22:57 70.3 °F /  21.3 °C 59.7 °F /  15.4 °C 30.1 in /  1018.8 hPa Calm     69 % 0 in /  0.0 mm
23:02 70.2 °F /  21.2 °C 59.9 °F /  15.5 °C 30.1 in /  1018.8 hPa North 1.2 mph /  1.9 km/h   70 % 0 in /  0.0 mm
23:07 70 °F /  21.1 °C 59.7 °F /  15.4 °C 30.1 in /  1019.9 hPa Calm     70 % 0 in /  0.0 mm
23:12 69.8 °F /  21.0 °C 59.5 °F /  15.3 °C 30.1 in /  1019.9 hPa NNE 1.2 mph /  1.9 km/h 1.2 mph /  1.9 km/h 70 % 0 in /  0.0 mm
23:17 69.6 °F /  20.9 °C 59.4 °F /  15.2 °C 30.1 in /  1019.9 hPa Calm     70 % 0 in /  0.0 mm
23:20 64.6 °F /  18.1 °C 58.6 °F /  14.8 °C 30.1 in /  1018.8 hPa Calm     81 % 0 in /  0.0 mm
23:22 69.4 °F /  20.8 °C 59.5 °F /  15.3 °C 30.1 in /  1019.9 hPa Calm     71 % 0 in /  0.0 mm
23:27 69.4 °F /  20.8 °C 59.5 °F /  15.3 °C 30.1 in /  1019.9 hPa NNE 1.2 mph /  1.9 km/h   71 % 0 in /  0.0 mm
23:30 64.6 °F /  18.1 °C 58.6 °F /  14.8 °C 30.1 in /  1018.8 hPa Calm     81 % 0 in /  0.0 mm
23:32 69.3 °F /  20.7 °C 59.5 °F /  15.3 °C 30.1 in /  1019.9 hPa Calm     71 % 0 in /  0.0 mm
23:37 69.1 °F /  20.6 °C 59.4 °F /  15.2 °C 30.1 in /  1018.8 hPa Calm     71 % 0 in /  0.0 mm
23:40 64.4 °F /  18.0 °C 58.5 °F /  14.7 °C 30.1 in /  1019.9 hPa Calm     81 % 0 in /  0.0 mm
23:42 68.9 °F /  20.5 °C 59.2 °F /  15.1 °C 30.1 in /  1018.8 hPa North 1.2 mph /  1.9 km/h 1.2 mph /  1.9 km/h 71 % 0 in /  0.0 mm
23:47 68.9 °F /  20.5 °C 59.2 °F /  15.1 °C 30.1 in /  1018.8 hPa Calm     71 % 0 in /  0.0 mm
23:52 68.9 °F /  20.5 °C 59.2 °F /  15.1 °C 30.1 in /  1019.9 hPa Calm     71 % 0 in /  0.0 mm
23:57 68.7 °F /  20.4 °C 59.4 °F /  15.2 °C 30.1 in /  1019.9 hPa Calm     72 % 0 in /  0.0 mm
Meteo Sesrovires
Elogis d' Weather Underground - 3.5 mb

Guio original per  Jim McMurry - jmcmurry@mwt.net Adaptat per a la plantilla per  Wim van der Kuil - Leuven-Template.eu

Trobareu la nostra informacio del temps tambe a:

Weather Underground

AWEKAS